EFKK

Kruunupyy Airport

Kokkola / Kruunupyy, Finland
METAR EFKK 222120Z 17004KT CAVOK M03/M04 Q1015
Observed Flight Rules
Apr-22 @ 21:20 UTC (35 minutes ago) Visual Flight Rules
Wind Visibility Clouds
170° at 4 knots 10,000+ meters
  • Clear skies
Temperatures Readings
Current -3°C / 27°F
Dewpoint -4°C / 25°F
Humidity 93%
Altimeter 29.97" Hg
Pressure 1015 hPa
Elevation 25
METAR EFKK 222120Z 17004KT CAVOK M03/M04 Q1015
Observed Flight Rules
Apr-22 @ 21:20 UTC
(35 minutes ago)
VFR
Wind Visibility
170° at 4 knots 10,000+ meters
Clouds
  • Clear skies
Temperature Dewpoint
-3°C / 27°F -4°C / 25°F
Humidity Altimeter Pressure
93% 29.97" Hg 1015 hPa